OEBA/ABT METAR and TAF weather

Enter ICAO airport designator
Station Type Date Time Source
OEBA METAR 2018/12/13 22:00 UTC NOAA

OEBA 132200Z 00000KT CAVOK 16/15 Q1025 NOSIG


Station Type Date Time Source
OEBA Decoded METAR 2018/12/13 22:00 UTC NOAA

Al Baha, Saudi Arabia (OEBA) 20-18N 041-38E 1662M
Dec 13, 2018 - 05:00 PM EST / 2018.12.13 2200 UTC
Wind: Calm:0
Visibility: greater than 7 mile(s):0
Temperature: 60 F (16 C)
Dew Point: 59 F (15 C)
Relative Humidity: 93%
Pressure (altimeter): 30.27 in. Hg (1025 hPa)
ob: OEBA 132200Z 00000KT CAVOK 16/15 Q1025 NOSIG
cycle: 22

Station Type Date Time Source
OEBA TAF 2018/12/13 12:18 UTC NOAA

TAF OEBA 131100Z 1312/1418 25013KT 9999 SCT020
TEMPO 1312/1318 TS FEW025CB BKN030
BECMG 1318/1320 VRB03KT
TEMPO 1318/1406 3000 BR FEW020


Example: see airport list